Time;durP1;ratioP1;P1;durP2;ratioP2;P2;SDS_P1;SDS_P2;PMS_P1;PMS_P2;Temp;Humidity;BMP_temperature;BMP_pressure;BME280_temperature;BME280_humidity;BME280_pressure;Samples;Min_cycle;Max_cycle;Signal;HPM_P1;HPM_P2
2021/06/02 00:01:55;;;;;;;19.35;8.90;;;14.90;82.20;;;;;;4887358;29;20028;-95
2021/06/02 00:04:27;;;;;;;15.85;8.77;;;14.90;82.50;;;;;;4888319;29;20033;-94
2021/06/02 00:06:57;;;;;;;22.30;9.75;;;14.90;82.70;;;;;;4888111;29;20111;-93
2021/06/02 00:09:23;;;;;;;;;;;14.90;83.00;;;;;;4893180;29;20029;-92
2021/06/02 00:11:51;;;;;;;12.60;8.13;;;14.80;83.30;;;;;;4895383;29;19908;-95
2021/06/02 00:14:20;;;;;;;13.70;7.85;;;14.80;83.40;;;;;;4887895;29;20029;-94
2021/06/02 00:16:46;;;;;;;19.67;9.15;;;14.70;83.60;;;;;;4903122;29;20040;-93
2021/06/02 00:19:12;;;;;;;14.52;8.25;;;14.70;84.10;;;;;;4886017;29;20040;-94
2021/06/02 00:21:38;;;;;;;17.52;9.23;;;14.60;84.50;;;;;;4885638;29;20081;-94
2021/06/02 00:24:04;;;;;;;20.05;10.20;;;14.60;84.90;;;;;;4885388;29;20079;-93
2021/06/02 00:26:34;;;;;;;15.93;7.68;;;14.50;85.20;;;;;;4885746;29;20056;-95
2021/06/02 00:29:07;;;;;;;19.83;10.27;;;14.40;85.60;;;;;;4887112;29;20029;-94
2021/06/02 00:31:38;;;;;;;18.88;9.75;;;14.40;86.10;;;;;;4902700;29;20044;-94
2021/06/02 00:34:05;;;;;;;20.63;9.80;;;14.40;86.50;;;;;;4892950;29;20028;-94
2021/06/02 00:36:31;;;;;;;21.38;9.40;;;14.30;86.70;;;;;;4897456;29;20085;-95
2021/06/02 00:38:58;;;;;;;23.55;11.02;;;14.20;87.00;;;;;;4897756;29;20040;-94
2021/06/02 00:41:25;;;;;;;18.50;10.00;;;14.20;87.40;;;;;;4907603;29;20047;-94
2021/06/02 00:43:51;;;;;;;18.90;10.13;;;14.10;87.60;;;;;;4908310;29;20152;-93
2021/06/02 00:46:20;;;;;;;17.80;9.35;;;14.10;87.90;;;;;;4906619;29;20040;-94
2021/06/02 00:48:45;;;;;;;16.95;10.15;;;14.00;88.30;;;;;;4898727;29;20067;-93
2021/06/02 00:51:12;;;;;;;22.42;9.98;;;14.00;88.60;;;;;;4899303;29;20033;-94
2021/06/02 00:53:38;;;;;;;18.17;11.20;;;13.90;88.80;;;;;;4899804;29;20052;-95
2021/06/02 00:56:06;;;;;;;19.52;10.70;;;13.90;89.20;;;;;;4899651;29;20025;-94
2021/06/02 00:58:38;;;;;;;16.98;9.95;;;13.90;89.30;;;;;;4914992;29;20057;-95
2021/06/02 01:01:05;;;;;;;19.90;11.02;;;13.80;89.60;;;;;;4897878;29;20057;-94
2021/06/02 01:03:35;;;;;;;17.60;9.90;;;13.80;89.90;;;;;;4895496;29;20073;-93
2021/06/02 01:06:01;;;;;;;20.05;11.88;;;13.80;90.00;;;;;;4897277;29;20032;-94
2021/06/02 01:08:29;;;;;;;20.60;11.40;;;13.80;90.20;;;;;;4896483;29;20123;-93
2021/06/02 01:10:56;;;;;;;22.42;11.75;;;13.70;90.30;;;;;;4899216;29;20016;-94
2021/06/02 01:13:22;;;;;;;22.45;12.27;;;13.60;90.70;;;;;;4902781;29;20045;-94
2021/06/02 01:15:50;;;;;;;34.30;12.77;;;13.60;90.60;;;;;;4890016;29;20025;-93
2021/06/02 01:18:18;;;;;;;22.02;11.30;;;13.50;90.70;;;;;;4897754;29;20052;-94
2021/06/02 01:20:45;;;;;;;21.00;11.15;;;13.50;90.80;;;;;;4900549;29;20032;-93
2021/06/02 01:23:12;;;;;;;25.08;11.40;;;13.50;91.00;;;;;;4900925;29;20032;-93
2021/06/02 01:25:40;;;;;;;24.80;11.93;;;13.40;91.00;;;;;;4899748;29;20033;-93
2021/06/02 01:28:07;;;;;;;19.73;11.10;;;13.40;91.20;;;;;;4899395;29;20048;-94
2021/06/02 01:30:34;;;;;;;18.17;11.63;;;13.40;91.30;;;;;;4898299;29;20029;-93
2021/06/02 01:33:19;;;;;;;20.42;11.73;;;13.40;91.40;;;;;;4883932;29;20072;-92
2021/06/02 01:36:01;;;;;;;18.75;10.80;;;13.30;91.50;;;;;;4883567;29;20060;-94
2021/06/02 01:38:48;;;;;;;20.15;11.20;;;13.20;91.70;;;;;;4898969;29;20036;-94
2021/06/02 01:41:31;;;;;;;18.45;11.60;;;13.20;91.90;;;;;;4883345;29;20033;-93
2021/06/02 01:44:18;;;;;;;21.88;12.10;;;13.10;92.00;;;;;;4883922;29;20033;-95
2021/06/02 01:46:58;;;;;;;20.38;11.30;;;13.00;92.10;;;;;;4898514;29;20025;-95
2021/06/02 01:49:48;;;;;;;21.42;10.90;;;12.90;92.30;;;;;;4884466;29;20048;-94
2021/06/02 01:52:23;;;;;;;22.02;11.48;;;12.90;92.50;;;;;;4900876;29;20462;-95
2021/06/02 01:55:20;;;;;;;19.90;10.98;;;12.80;92.60;;;;;;4885724;29;20033;-93
2021/06/02 01:57:58;;;;;;;22.40;10.80;;;12.70;92.90;;;;;;4885097;29;20504;-94
2021/06/02 02:00:43;;;;;;;23.50;11.80;;;12.70;93.00;;;;;;4888919;29;20048;-92
2021/06/02 02:03:08;;;;;;;21.70;11.20;;;12.60;93.30;;;;;;4885055;29;20032;-93
2021/06/02 02:05:53;;;;;;;23.67;11.90;;;12.60;93.40;;;;;;4882549;29;20032;-93
2021/06/02 02:09:02;;;;;;;20.65;11.73;;;12.50;93.60;;;;;;4882976;29;20379;-93
2021/06/02 02:11:33;;;;;;;22.88;10.88;;;12.50;93.90;;;;;;4841708;29;20526;-92
2021/06/02 02:14:22;;;;;;;21.70;12.45;;;12.40;94.00;;;;;;4827523;29;20187;-92
2021/06/02 02:17:06;;;;;;;23.35;11.88;;;12.40;94.20;;;;;;4830439;29;20034;-93
2021/06/02 02:19:54;;;;;;;20.70;11.80;;;12.40;94.50;;;;;;4846706;29;20057;-92
2021/06/02 02:22:25;;;;;;;23.42;12.63;;;12.30;94.60;;;;;;4846161;29;20030;-93
2021/06/02 02:25:01;;;;;;;22.13;12.20;;;12.30;94.80;;;;;;4842110;29;20097;-95
2021/06/02 02:27:51;;;;;;;20.27;11.68;;;12.30;95.00;;;;;;4826106;29;20057;-93
2021/06/02 02:30:26;;;;;;;20.30;11.27;;;12.30;95.20;;;;;;4806930;29;20038;-94
2021/06/02 02:33:16;;;;;;;27.27;12.30;;;12.20;95.40;;;;;;4841125;29;20038;-93
2021/06/02 02:35:58;;;;;;;23.38;12.73;;;12.20;95.60;;;;;;4845437;29;20033;-94
2021/06/02 02:38:51;;;;;;;22.73;11.60;;;12.10;95.90;;;;;;4831946;29;20049;-93
2021/06/02 02:41:46;;;;;;;20.52;11.13;;;12.10;96.20;;;;;;4852584;29;20054;-94
2021/06/02 02:44:35;;;;;;;26.10;12.75;;;12.10;96.40;;;;;;4859054;29;20065;-94
2021/06/02 02:47:24;;;;;;;23.98;11.57;;;12.10;96.60;;;;;;4905665;29;20036;-93
2021/06/02 02:50:20;;;;;;;20.30;11.65;;;12.10;96.70;;;;;;4903816;29;20049;-94
2021/06/02 02:53:10;;;;;;;24.70;11.98;;;12.10;97.00;;;;;;4882198;29;20029;-93
2021/06/02 02:55:37;;;;;;;27.37;12.67;;;12.10;97.20;;;;;;4884259;29;20522;-93
2021/06/02 02:58:25;;;;;;;25.20;12.00;;;12.10;97.40;;;;;;4884988;29;20301;-92
2021/06/02 03:01:12;;;;;;;26.45;13.65;;;12.10;97.50;;;;;;4884369;29;20060;-92
2021/06/02 03:04:07;;;;;;;26.55;12.32;;;12.10;97.80;;;;;;4889580;29;20104;-93
2021/06/02 03:06:38;;;;;;;27.98;12.40;;;12.10;98.00;;;;;;4884818;29;20032;-92
2021/06/02 03:09:30;;;;;;;35.35;15.30;;;12.10;98.20;;;;;;4883146;29;20037;-92
2021/06/02 03:12:26;;;;;;;26.98;13.15;;;12.00;98.40;;;;;;4882034;29;20064;-94
2021/06/02 03:15:03;;;;;;;23.88;11.85;;;12.00;98.60;;;;;;4897087;29;20063;-94
2021/06/02 03:17:29;;;;;;;25.48;12.02;;;12.00;98.80;;;;;;4881516;29;20031;-94
2021/06/02 03:20:00;;;;;;;27.00;12.73;;;12.10;99.10;;;;;;4881509;29;20505;-94
2021/06/02 03:22:37;;;;;;;;;;;12.10;99.30;;;;;;4882016;29;20535;-94
2021/06/02 03:25:22;;;;;;;24.80;12.77;;;12.00;99.40;;;;;;4881448;29;19907;-93
2021/06/02 03:28:26;;;;;;;26.60;13.25;;;12.00;99.50;;;;;;4881343;29;20044;-92
2021/06/02 03:31:30;;;;;;;25.55;13.75;;;12.00;99.70;;;;;;4853058;29;20029;-94
2021/06/02 03:34:22;;;;;;;27.13;13.88;;;12.00;99.90;;;;;;4890474;29;20021;-94
2021/06/02 03:37:06;;;;;;;23.08;13.38;;;12.00;99.90;;;;;;4903012;29;20558;-93
2021/06/02 03:39:47;;;;;;;29.15;14.98;;;11.90;99.90;;;;;;4902161;29;20079;-92
2021/06/02 03:42:35;;;;;;;31.48;15.25;;;11.90;99.90;;;;;;4904383;29;20024;-92
2021/06/02 03:45:38;;;;;;;29.63;15.38;;;11.90;99.90;;;;;;4889589;29;20367;-93
2021/06/02 03:48:08;;;;;;;31.52;15.80;;;11.80;99.90;;;;;;4904842;29;20049;-92
2021/06/02 03:51:13;;;;;;;29.00;14.65;;;11.80;99.90;;;;;;4885899;29;20028;-94
2021/06/02 03:54:02;;;;;;;32.72;15.68;;;11.70;99.90;;;;;;4846396;29;20045;-94
2021/06/02 03:57:05;;;;;;;35.67;16.80;;;11.80;99.90;;;;;;4848103;29;20029;-93
2021/06/02 03:59:53;;;;;;;30.08;15.63;;;11.70;99.90;;;;;;4863382;29;20045;-92
2021/06/02 04:02:29;;;;;;;30.58;13.18;;;11.70;99.90;;;;;;4848319;29;20038;-92
2021/06/02 04:05:17;;;;;;;37.38;17.50;;;11.70;99.90;;;;;;4866013;29;20046;-93
2021/06/02 04:07:54;;;;;;;35.08;17.13;;;11.80;99.90;;;;;;4850791;29;20030;-92
2021/06/02 04:10:32;;;;;;;36.53;17.17;;;11.70;99.90;;;;;;4862843;29;20590;-93
2021/06/02 04:13:03;;;;;;;35.78;17.63;;;11.70;99.90;;;;;;4845624;29;20078;-93
2021/06/02 04:15:35;;;;;;;32.70;17.88;;;11.70;99.90;;;;;;4861478;29;20162;-92
2021/06/02 04:18:01;;;;;;;37.28;16.40;;;11.70;99.90;;;;;;4845635;29;20045;-94
2021/06/02 04:20:27;;;;;;;42.53;17.60;;;11.70;99.90;;;;;;4863187;29;20089;-92
2021/06/02 04:22:56;;;;;;;40.00;20.60;;;11.70;99.90;;;;;;4848448;29;20030;-93
2021/06/02 04:25:23;;;;;;;26.58;13.15;;;11.70;99.90;;;;;;4849643;29;20037;-94
2021/06/02 04:27:49;;;;;;;33.97;17.05;;;11.70;99.90;;;;;;4849877;29;20053;-93
2021/06/02 04:30:18;;;;;;;38.85;17.77;;;11.70;99.90;;;;;;4866637;29;20131;-93
2021/06/02 04:32:47;;;;;;;42.55;18.58;;;11.70;99.90;;;;;;4887162;29;20048;-92
2021/06/02 04:35:16;;;;;;;39.75;18.23;;;11.70;99.90;;;;;;4871916;29;20061;-93
2021/06/02 04:37:42;;;;;;;35.75;17.95;;;11.70;99.90;;;;;;4886723;29;20044;-92
2021/06/02 04:40:09;;;;;;;35.17;18.50;;;11.70;99.90;;;;;;4886868;29;20039;-91
2021/06/02 04:42:37;;;;;;;33.03;17.52;;;11.70;99.90;;;;;;4903347;29;20024;-93
2021/06/02 04:45:15;;;;;;;37.28;18.92;;;11.70;99.90;;;;;;4887458;29;20044;-92
2021/06/02 04:47:43;;;;;;;37.40;19.10;;;11.70;99.90;;;;;;4886899;29;20036;-92
2021/06/02 04:50:18;;;;;;;37.03;17.95;;;11.70;99.90;;;;;;4885294;29;20036;-93
2021/06/02 04:53:14;;;;;;;39.70;20.17;;;11.70;99.90;;;;;;4882652;29;20020;-93
2021/06/02 04:56:06;;;;;;;39.05;19.30;;;11.70;99.90;;;;;;4882624;29;20463;-93
2021/06/02 04:59:02;;;;;;;44.20;20.52;;;11.70;99.90;;;;;;4882614;29;20036;-93
2021/06/02 05:02:05;;;;;;;42.53;20.33;;;11.70;99.90;;;;;;4899296;29;20037;-93
2021/06/02 05:05:16;;;;;;;37.67;20.42;;;11.70;99.90;;;;;;4894128;29;20024;-92
2021/06/02 05:08:19;;;;;;;45.17;21.03;;;11.70;99.90;;;;;;4906998;29;20069;-93
2021/06/02 05:11:24;;;;;;;37.15;18.55;;;11.70;99.90;;;;;;4921116;29;20332;-93
2021/06/02 05:14:22;;;;;;;43.83;18.75;;;11.70;99.90;;;;;;4916529;29;20043;-92
2021/06/02 05:17:10;;;;;;;42.58;20.35;;;11.80;99.90;;;;;;4909920;29;20029;-94
2021/06/02 05:20:03;;;;;;;44.42;19.45;;;11.80;99.90;;;;;;4911058;29;20043;-93
2021/06/02 05:22:53;;;;;;;41.03;21.13;;;11.80;99.90;;;;;;4899981;29;20033;-91
2021/06/02 05:25:56;;;;;;;38.65;17.35;;;11.80;99.90;;;;;;4879503;29;20092;-93
2021/06/02 05:28:31;;;;;;;41.97;20.73;;;11.90;99.90;;;;;;4874688;29;20033;-93
2021/06/02 05:31:31;;;;;;;43.58;19.15;;;11.90;99.90;;;;;;4876550;29;20024;-93
2021/06/02 05:34:02;;;;;;;37.80;19.70;;;11.90;99.90;;;;;;4880896;29;20033;-91
2021/06/02 05:36:55;;;;;;;47.35;20.95;;;11.90;99.90;;;;;;4892824;29;20043;-93
2021/06/02 05:39:48;;;;;;;38.30;18.85;;;12.00;99.90;;;;;;4897243;29;20032;-93
2021/06/02 05:42:35;;;;;;;36.53;18.13;;;12.10;99.90;;;;;;4909698;29;20035;-94
2021/06/02 05:45:03;;;;;;;42.67;19.08;;;12.10;99.90;;;;;;4893547;29;20029;-91
2021/06/02 05:47:51;;;;;;;33.53;17.27;;;12.20;99.90;;;;;;4906600;29;20045;-94
2021/06/02 05:50:39;;;;;;;35.95;17.27;;;12.30;99.90;;;;;;4905259;29;20037;-92
2021/06/02 05:53:37;;;;;;;40.10;19.43;;;12.40;99.90;;;;;;4894391;29;20044;-93
2021/06/02 05:56:37;;;;;;;35.83;16.40;;;12.40;99.90;;;;;;4906356;29;20394;-92
2021/06/02 05:59:24;;;;;;;33.78;15.52;;;12.50;99.90;;;;;;4891887;29;20056;-92
2021/06/02 06:02:14;;;;;;;31.52;16.25;;;12.60;99.90;;;;;;4891159;29;20393;-93
2021/06/02 06:05:17;;;;;;;23.55;12.73;;;12.70;99.90;;;;;;4886718;29;20024;-92
2021/06/02 06:07:58;;;;;;;30.70;14.40;;;12.80;99.90;;;;;;4896124;29;20028;-93
2021/06/02 06:10:48;;;;;;;30.58;15.13;;;12.90;99.90;;;;;;4898145;29;20063;-93
2021/06/02 06:13:44;;;;;;;33.42;15.85;;;13.00;99.90;;;;;;4900598;29;20029;-93
2021/06/02 06:16:22;;;;;;;36.05;17.10;;;13.20;99.90;;;;;;4885096;29;20493;-93
2021/06/02 06:19:20;;;;;;;35.35;15.88;;;13.30;99.90;;;;;;4892949;29;20040;-93
2021/06/02 06:22:10;;;;;;;31.88;15.55;;;13.30;99.90;;;;;;4816834;29;20042;-94
2021/06/02 06:25:12;;;;;;;28.67;15.52;;;13.40;99.90;;;;;;4824826;29;20042;-93
2021/06/02 06:27:44;;;;;;;32.72;15.77;;;13.50;99.90;;;;;;4825091;29;20552;-94
2021/06/02 06:30:14;;;;;;;33.88;15.63;;;13.60;99.90;;;;;;4822907;29;20144;-93
2021/06/02 06:46:13;;;;;;;25.50;13.13;;;14.10;99.90;;;;;;4998753;23;20067;-94
2021/06/02 06:48:43;;;;;;;25.25;14.90;;;14.20;99.90;;;;;;4902081;29;20041;-95
2021/06/02 06:51:14;;;;;;;29.70;14.35;;;14.30;99.90;;;;;;4903167;29;20028;-96
2021/06/02 06:53:42;;;;;;;30.27;13.57;;;14.40;99.90;;;;;;4865210;29;20048;-95
2021/06/02 06:56:10;;;;;;;29.45;14.13;;;14.40;99.90;;;;;;4887199;29;20029;-96
2021/06/02 06:58:37;;;;;;;27.52;14.07;;;14.50;99.90;;;;;;4869183;29;20033;-95
2021/06/02 07:01:04;;;;;;;29.17;14.52;;;14.60;99.90;;;;;;4883068;29;20041;-95
2021/06/02 07:03:31;;;;;;;25.98;13.40;;;14.70;99.90;;;;;;4895723;29;20070;-96
2021/06/02 07:06:02;;;;;;;29.45;13.32;;;14.80;99.90;;;;;;4872006;29;20108;-96
2021/06/02 07:08:29;;;;;;;32.00;13.23;;;14.90;99.90;;;;;;4883735;29;20093;-96
2021/06/02 07:13:33;;;;;;;26.95;13.10;;;15.10;99.90;;;;;;4896997;29;20052;-90
2021/06/02 07:16:02;;;;;;;27.42;13.27;;;15.20;99.90;;;;;;4892892;29;20053;-95
2021/06/02 07:18:32;;;;;;;28.77;11.73;;;15.30;99.90;;;;;;4898952;29;20044;-95
2021/06/02 07:21:03;;;;;;;30.45;13.77;;;15.40;99.90;;;;;;4893232;29;20029;-95
2021/06/02 07:25:56;;;;;;;25.02;11.75;;;15.60;99.90;;;;;;4865893;29;20072;-94
2021/06/02 07:28:34;;;;;;;35.13;14.65;;;15.70;99.90;;;;;;4915285;23;20060;-92
2021/06/02 07:31:00;;;;;;;29.17;11.80;;;15.80;99.90;;;;;;4904214;29;20024;-92
2021/06/02 07:33:26;;;;;;;28.95;13.00;;;15.90;99.70;;;;;;4903960;29;20099;-92
2021/06/02 07:35:51;;;;;;;30.15;12.35;;;16.00;99.30;;;;;;4902834;29;20032;-92
2021/06/02 07:38:17;;;;;;;25.73;12.55;;;16.10;99.00;;;;;;4903219;29;20044;-92
2021/06/02 07:40:43;;;;;;;23.55;12.23;;;16.20;98.60;;;;;;4902850;29;20020;-92
2021/06/02 07:43:09;;;;;;;23.10;11.98;;;16.30;98.40;;;;;;4903594;29;20076;-92
2021/06/02 07:45:35;;;;;;;21.58;11.27;;;16.40;98.10;;;;;;4901031;29;20033;-90
2021/06/02 07:48:01;;;;;;;23.13;12.98;;;16.50;97.70;;;;;;4885153;29;20075;-92
2021/06/02 07:50:27;;;;;;;26.77;12.13;;;16.60;97.30;;;;;;4883987;29;20044;-91
2021/06/02 07:52:52;;;;;;;22.50;12.18;;;16.60;96.90;;;;;;4884761;29;20522;-92
2021/06/02 07:55:21;;;;;;;53.47;14.80;;;16.80;96.50;;;;;;4885482;29;20383;-92
2021/06/02 07:57:47;;;;;;;23.67;12.02;;;16.90;96.10;;;;;;4894328;29;20127;-92
2021/06/02 08:00:24;;;;;;;24.10;12.68;;;16.90;95.80;;;;;;4896385;29;20064;-90
2021/06/02 08:02:50;;;;;;;22.13;10.52;;;17.10;95.60;;;;;;4894550;29;20558;-91
2021/06/02 08:05:16;;;;;;;24.05;11.10;;;17.20;95.10;;;;;;4886511;29;20033;-91
2021/06/02 08:07:46;;;;;;;21.10;10.20;;;17.30;94.90;;;;;;4888463;29;20033;-91
2021/06/02 08:10:14;;;;;;;27.38;11.88;;;17.50;94.00;;;;;;4888844;29;20123;-90
2021/06/02 08:12:41;;;;;;;21.55;11.75;;;17.60;93.30;;;;;;4903207;29;20036;-91
2021/06/02 08:15:08;;;;;;;23.30;11.18;;;17.80;93.00;;;;;;4888648;29;20037;-91
2021/06/02 08:17:38;;;;;;;23.38;11.85;;;17.90;92.80;;;;;;4903879;29;20021;-91
2021/06/02 08:20:08;;;;;;;25.17;10.50;;;18.10;92.20;;;;;;4892618;29;20071;-91
2021/06/02 08:22:34;;;;;;;22.17;11.02;;;18.20;91.30;;;;;;4889740;29;20036;-91
2021/06/02 08:25:06;;;;;;;19.98;10.25;;;18.30;90.90;;;;;;4891327;29;20037;-91
2021/06/02 08:27:32;;;;;;;20.30;10.60;;;18.50;90.60;;;;;;4890934;29;20059;-90
2021/06/02 08:29:57;;;;;;;24.02;11.00;;;18.60;90.30;;;;;;4890386;29;20033;-90
2021/06/02 08:32:24;;;;;;;22.88;11.65;;;18.80;90.00;;;;;;4889769;29;20031;-89
2021/06/02 08:34:50;;;;;;;23.73;11.98;;;18.90;89.30;;;;;;4890547;29;20024;-91
2021/06/02 08:37:16;;;;;;;23.40;11.43;;;18.90;88.30;;;;;;4890220;29;20104;-89
2021/06/02 08:39:42;;;;;;;23.73;11.40;;;18.90;87.60;;;;;;4891812;29;20502;-90
2021/06/02 08:42:09;;;;;;;25.92;11.80;;;19.10;87.40;;;;;;4891965;29;20053;-90
2021/06/02 08:44:45;;;;;;;18.52;10.60;;;19.20;86.90;;;;;;4908707;29;20068;-90
2021/06/02 08:47:11;;;;;;;24.75;10.73;;;19.30;86.60;;;;;;4891937;29;20047;-90
2021/06/02 08:49:37;;;;;;;25.17;11.02;;;19.50;85.90;;;;;;4893957;29;20128;-91
2021/06/02 08:52:08;;;;;;;18.45;10.13;;;19.60;85.30;;;;;;4891739;29;20140;-91
2021/06/02 08:54:37;;;;;;;;;;;19.70;84.70;;;;;;4893076;29;20028;-92
2021/06/02 08:57:08;;;;;;;19.67;10.95;;;19.90;83.50;;;;;;4892876;29;19951;-92
2021/06/02 08:59:34;;;;;;;22.45;10.13;;;20.00;83.30;;;;;;4891737;29;20041;-92
2021/06/02 09:02:01;;;;;;;22.15;11.25;;;20.10;82.90;;;;;;4909085;29;20050;-92
2021/06/02 09:04:32;;;;;;;25.70;11.10;;;20.10;82.00;;;;;;4893980;29;20459;-91
2021/06/02 09:07:16;;;;;;;19.58;11.00;;;20.20;81.50;;;;;;4896668;29;20012;-93
2021/06/02 09:09:44;;;;;;;21.83;10.43;;;20.40;80.60;;;;;;4896027;29;20121;-92
2021/06/02 09:12:14;;;;;;;20.42;10.13;;;20.40;79.40;;;;;;4896928;29;20021;-93
2021/06/02 09:14:40;;;;;;;;;;;20.40;79.10;;;;;;4897317;29;20044;-92
2021/06/02 09:17:08;;;;;;;19.17;11.63;;;20.60;78.90;;;;;;4901957;29;19912;-93
2021/06/02 09:19:46;;;;;;;21.52;11.48;;;20.60;77.90;;;;;;4904633;29;20032;-90
2021/06/02 09:22:21;;;;;;;23.15;9.85;;;20.50;77.60;;;;;;4897016;29;20091;-92
2021/06/02 09:24:59;;;;;;;20.55;10.50;;;20.50;78.00;;;;;;4899450;29;20044;-92
2021/06/02 09:27:50;;;;;;;20.15;10.63;;;20.60;78.10;;;;;;4908955;29;20048;-91
2021/06/02 09:30:37;;;;;;;20.15;11.10;;;20.80;77.80;;;;;;4908775;29;20111;-90
2021/06/02 09:33:06;;;;;;;18.45;9.48;;;20.90;77.70;;;;;;4906302;29;20036;-90
2021/06/02 09:35:38;;;;;;;24.50;10.75;;;21.00;77.30;;;;;;4885054;29;20037;-90
2021/06/02 09:38:21;;;;;;;23.85;11.23;;;21.20;76.70;;;;;;4888474;29;20051;-91
2021/06/02 09:40:56;;;;;;;19.27;9.90;;;21.20;75.50;;;;;;4889033;29;20025;-91
2021/06/02 09:43:32;;;;;;;16.27;9.15;;;21.40;75.20;;;;;;4891386;29;20049;-91
2021/06/02 09:46:09;;;;;;;19.75;10.85;;;21.50;74.50;;;;;;4891434;29;20029;-89
2021/06/02 09:48:47;;;;;;;22.45;10.25;;;21.60;73.90;;;;;;4890732;29;20052;-93
2021/06/02 09:51:35;;;;;;;16.55;10.05;;;21.70;74.00;;;;;;4890836;29;20115;-92
2021/06/02 09:54:03;;;;;;;21.02;10.52;;;21.80;73.70;;;;;;4889626;29;20029;-91
2021/06/02 09:56:42;;;;;;;16.92;8.80;;;21.80;73.30;;;;;;4889885;29;20081;-91
2021/06/02 09:59:11;;;;;;;19.88;10.88;;;21.90;73.00;;;;;;4890941;29;20037;-92
2021/06/02 10:01:59;;;;;;;15.70;8.77;;;22.10;73.00;;;;;;4876759;29;20180;-92
2021/06/02 10:04:36;;;;;;;18.65;9.20;;;22.30;72.60;;;;;;4891914;29;20036;-93
2021/06/02 10:07:04;;;;;;;16.75;9.18;;;22.60;71.70;;;;;;4891703;29;20057;-93
2021/06/02 10:09:35;;;;;;;17.35;8.65;;;22.80;71.30;;;;;;4890078;29;20029;-92
2021/06/02 10:12:18;;;;;;;22.02;9.60;;;23.00;70.60;;;;;;4888617;29;20088;-93
2021/06/02 10:17:30;;;;;;;15.10;8.73;;;23.40;69.80;;;;;;4900845;24;20073;-93
2021/06/02 10:19:58;;;;;;;20.55;10.02;;;23.50;69.20;;;;;;4852043;29;20079;-93
2021/06/02 10:22:29;;;;;;;15.07;8.77;;;23.60;68.30;;;;;;4880572;29;20031;-92
2021/06/02 10:24:58;;;;;;;16.48;9.10;;;23.70;67.60;;;;;;4884155;29;20433;-92
2021/06/02 10:27:25;;;;;;;15.70;9.60;;;23.70;67.50;;;;;;4867420;29;20028;-92
2021/06/02 10:29:55;;;;;;;20.27;10.10;;;23.80;67.50;;;;;;4869136;29;20029;-92
2021/06/02 10:32:22;;;;;;;18.40;9.48;;;23.90;67.50;;;;;;4869144;29;20049;-92
2021/06/02 10:34:52;;;;;;;17.05;9.00;;;23.90;67.60;;;;;;4869568;29;20127;-91
2021/06/02 10:37:23;;;;;;;15.48;8.38;;;24.00;67.30;;;;;;4867357;29;20124;-92
2021/06/02 10:40:03;;;;;;;20.55;9.48;;;24.20;67.00;;;;;;4867725;29;20045;-92
2021/06/02 10:42:57;;;;;;;21.37;9.43;;;24.40;66.40;;;;;;4867362;29;20507;-91
2021/06/02 10:45:30;;;;;;;16.92;9.07;;;24.50;66.20;;;;;;4867972;29;20285;-94
2021/06/02 10:50:35;;;;;;;17.98;8.85;;;24.60;66.40;;;;;;5750828;23;22158;-90
2021/06/02 10:53:22;;;;;;;17.52;9.90;;;24.70;66.70;;;;;;4910721;29;20044;-93
2021/06/02 10:55:50;;;;;;;20.55;8.57;;;24.90;66.30;;;;;;4911301;29;20032;-92
2021/06/02 10:58:21;;;;;;;16.45;8.55;;;24.80;65.50;;;;;;4929314;29;20032;-92
2021/06/02 11:01:10;;;;;;;19.30;9.32;;;24.70;65.30;;;;;;4914983;29;20108;-93
2021/06/02 11:03:38;;;;;;;;;;;24.70;65.60;;;;;;4915850;29;20126;-92
2021/06/02 11:06:17;;;;;;;17.10;8.30;;;24.70;65.80;;;;;;4917291;29;19911;-91
2021/06/02 11:08:49;;;;;;;21.23;8.32;;;24.80;65.90;;;;;;4914679;29;20028;-91
2021/06/02 11:11:29;;;;;;;19.17;8.68;;;25.00;65.70;;;;;;4911353;29;20048;-91
2021/06/02 11:14:17;;;;;;;13.95;8.75;;;25.10;65.00;;;;;;4923983;29;20028;-91
2021/06/02 11:17:00;;;;;;;18.80;9.30;;;25.30;64.10;;;;;;4918567;29;20028;-92
2021/06/02 11:19:30;;;;;;;18.85;8.75;;;25.40;63.90;;;;;;4911100;29;20123;-92
2021/06/02 11:21:58;;;;;;;18.40;8.33;;;25.60;64.00;;;;;;4911221;29;20061;-93
2021/06/02 11:24:42;;;;;;;17.63;7.72;;;25.70;63.70;;;;;;4912118;29;20277;-93
2021/06/02 11:27:17;;;;;;;17.45;8.80;;;25.80;63.60;;;;;;4910918;29;20029;-92
2021/06/02 11:29:52;;;;;;;23.27;7.63;;;25.90;63.00;;;;;;4911905;29;20032;-91
2021/06/02 11:32:32;;;;;;;16.90;9.05;;;26.00;62.40;;;;;;4912022;29;20043;-93
2021/06/02 11:35:00;;;;;;;21.52;8.18;;;26.20;61.40;;;;;;4914049;29;20032;-92
2021/06/02 11:37:44;;;;;;;18.23;8.30;;;26.30;61.50;;;;;;4912729;29;20037;-92
2021/06/02 11:40:14;;;;;;;11.88;6.70;;;26.40;60.90;;;;;;4916007;29;20036;-92
2021/06/02 11:42:48;;;;;;;15.90;7.87;;;26.50;60.50;;;;;;4898983;29;20033;-91
2021/06/02 11:45:17;;;;;;;15.10;8.05;;;26.80;60.20;;;;;;4898842;29;20038;-92
2021/06/02 11:47:49;;;;;;;24.98;9.05;;;26.90;60.00;;;;;;4914826;29;20039;-92
2021/06/02 11:50:25;;;;;;;11.95;7.40;;;27.00;59.80;;;;;;4900415;29;20128;-91
2021/06/02 11:53:01;;;;;;;20.73;8.20;;;26.90;59.80;;;;;;4915101;29;20080;-93
2021/06/02 11:55:34;;;;;;;20.15;8.98;;;26.90;59.60;;;;;;4899080;29;20048;-92
2021/06/02 11:58:00;;;;;;;18.83;8.30;;;26.80;59.10;;;;;;4912587;29;20036;-92
2021/06/02 12:00:28;;;;;;;13.73;6.47;;;26.70;59.30;;;;;;4910424;29;20120;-91
2021/06/02 12:03:03;;;;;;;15.30;7.40;;;26.70;59.80;;;;;;4912293;29;20057;-91
2021/06/02 12:05:39;;;;;;;17.42;7.80;;;26.70;59.90;;;;;;4896741;29;20029;-91
2021/06/02 13:38:25;;;;;;;4.88;3.40;;;28.20;54.40;;;;;;4949001;23;20076;-90
2021/06/02 14:19:27;;;;;;;8.48;3.75;;;29.60;52.80;;;;;;4883118;23;20507;-92
2021/06/02 14:21:53;;;;;;;6.50;3.55;;;29.60;52.90;;;;;;4887445;29;20041;-90
2021/06/02 14:24:21;;;;;;;7.00;3.35;;;29.70;52.70;;;;;;4887551;29;20032;-93
2021/06/02 14:26:48;;;;;;;9.05;3.50;;;29.70;52.50;;;;;;4888235;29;20040;-92
2021/06/02 14:29:14;;;;;;;8.05;3.47;;;29.60;52.60;;;;;;4872870;29;20448;-93
2021/06/02 14:31:42;;;;;;;9.68;3.45;;;29.50;52.80;;;;;;4888107;29;20033;-92
2021/06/02 14:34:08;;;;;;;7.30;3.15;;;29.40;52.80;;;;;;4887255;29;20028;-89
2021/06/02 14:36:34;;;;;;;7.15;3.13;;;29.50;53.10;;;;;;4885879;29;20570;-92
2021/06/02 14:39:01;;;;;;;8.40;3.20;;;29.50;53.00;;;;;;4882503;29;20037;-90
2021/06/02 14:41:27;;;;;;;12.88;3.20;;;29.70;53.00;;;;;;4866674;29;20474;-92
2021/06/02 14:43:53;;;;;;;7.07;3.10;;;29.80;53.00;;;;;;4865985;29;20497;-93
2021/06/02 14:46:19;;;;;;;7.00;3.30;;;30.00;52.80;;;;;;4873422;29;20080;-90
2021/06/02 14:48:44;;;;;;;8.82;3.13;;;29.90;52.50;;;;;;4866714;29;20063;-91
2021/06/02 14:51:11;;;;;;;7.57;3.47;;;29.90;52.50;;;;;;4865864;29;20043;-90
2021/06/02 14:53:37;;;;;;;7.65;3.35;;;30.00;52.50;;;;;;4882805;29;20037;-93
2021/06/02 14:56:03;;;;;;;8.85;3.42;;;30.00;52.40;;;;;;4866401;29;20081;-93
2021/06/02 14:58:29;;;;;;;6.75;3.55;;;30.00;52.10;;;;;;4866872;29;20430;-93
2021/06/02 15:00:55;;;;;;;9.30;3.42;;;29.90;52.30;;;;;;4864880;29;20064;-92
2021/06/02 15:03:21;;;;;;;5.85;3.25;;;29.90;52.80;;;;;;4862382;29;20025;-94
2021/06/02 15:05:51;;;;;;;11.63;3.72;;;30.00;53.00;;;;;;4878065;29;20120;-93
2021/06/02 15:08:17;;;;;;;11.90;3.90;;;30.10;52.90;;;;;;4878886;29;20051;-91
2021/06/02 15:10:43;;;;;;;8.15;3.65;;;30.00;52.60;;;;;;4877926;29;20491;-95
2021/06/02 15:13:10;;;;;;;8.13;3.70;;;29.70;52.90;;;;;;4879005;29;20037;-93
2021/06/02 15:15:36;;;;;;;8.75;3.40;;;29.60;53.40;;;;;;4878989;29;20029;-93
2021/06/02 15:18:02;;;;;;;5.65;3.15;;;29.40;53.60;;;;;;4878151;29;20037;-92
2021/06/02 15:20:28;;;;;;;4.85;3.42;;;29.20;54.00;;;;;;4878991;29;20193;-92
2021/06/02 15:22:54;;;;;;;8.73;3.45;;;29.10;54.10;;;;;;4862939;29;20025;-90
2021/06/02 15:25:21;;;;;;;8.10;3.78;;;28.80;54.30;;;;;;4862710;29;20041;-92
2021/06/02 15:27:59;;;;;;;8.77;4.43;;;28.60;54.40;;;;;;4862422;29;20033;-95
2021/06/02 15:30:28;;;;;;;8.73;3.83;;;28.40;54.80;;;;;;4862871;29;20037;-92
2021/06/02 15:32:59;;;;;;;9.43;3.83;;;28.20;55.20;;;;;;4864626;29;20029;-93
2021/06/02 15:35:31;;;;;;;5.10;3.38;;;28.10;55.90;;;;;;4879615;29;20044;-90
2021/06/02 15:37:57;;;;;;;8.27;3.90;;;28.10;56.20;;;;;;4855726;29;20028;-92
2021/06/02 15:40:24;;;;;;;10.93;3.72;;;28.20;56.40;;;;;;4881953;29;20495;-92
2021/06/02 15:42:53;;;;;;;9.13;3.80;;;28.30;56.10;;;;;;4883035;29;20072;-92
2021/06/02 15:45:20;;;;;;;9.75;4.10;;;28.50;55.70;;;;;;4868788;29;20120;-92
2021/06/02 15:47:46;;;;;;;6.78;4.03;;;28.50;55.10;;;;;;4867935;29;20025;-91